sensor_id;sensor_type;location;lat;lon;timestamp;P1;durP1;ratioP1;P2;durP2;ratioP2
59390;SDS011;53405;57.012;40.984;2023-02-28T00:01:55;9.48;;;4.72;;
59390;SDS011;53405;57.012;40.984;2023-02-28T00:04:42;9.07;;;3.92;;
59390;SDS011;53405;57.012;40.984;2023-02-28T00:07:30;8.93;;;4.60;;
59390;SDS011;53405;57.012;40.984;2023-02-28T00:10:19;10.43;;;5.05;;
59390;SDS011;53405;57.012;40.984;2023-02-28T00:13:09;10.82;;;4.63;;
59390;SDS011;53405;57.012;40.984;2023-02-28T00:15:58;10.32;;;4.63;;
59390;SDS011;53405;57.012;40.984;2023-02-28T00:18:47;11.18;;;4.40;;
59390;SDS011;53405;57.012;40.984;2023-02-28T00:21:35;10.40;;;4.28;;
59390;SDS011;53405;57.012;40.984;2023-02-28T00:24:23;11.07;;;5.50;;
59390;SDS011;53405;57.012;40.984;2023-02-28T00:27:10;9.40;;;3.80;;
59390;SDS011;53405;57.012;40.984;2023-02-28T00:29:58;8.77;;;4.15;;
59390;SDS011;53405;57.012;40.984;2023-02-28T00:32:46;11.05;;;4.40;;
59390;SDS011;53405;57.012;40.984;2023-02-28T00:35:34;10.48;;;4.95;;
59390;SDS011;53405;57.012;40.984;2023-02-28T00:38:21;7.88;;;3.20;;
59390;SDS011;53405;57.012;40.984;2023-02-28T00:41:09;9.07;;;3.58;;
59390;SDS011;53405;57.012;40.984;2023-02-28T00:43:56;10.50;;;5.63;;
59390;SDS011;53405;57.012;40.984;2023-02-28T00:46:44;8.43;;;4.60;;
59390;SDS011;53405;57.012;40.984;2023-02-28T00:49:31;9.95;;;4.45;;
59390;SDS011;53405;57.012;40.984;2023-02-28T00:52:19;8.18;;;3.70;;
59390;SDS011;53405;57.012;40.984;2023-02-28T00:55:06;9.57;;;4.93;;
59390;SDS011;53405;57.012;40.984;2023-02-28T00:57:54;10.50;;;5.07;;
59390;SDS011;53405;57.012;40.984;2023-02-28T01:00:42;7.63;;;3.15;;
59390;SDS011;53405;57.012;40.984;2023-02-28T01:03:31;10.95;;;4.05;;
59390;SDS011;53405;57.012;40.984;2023-02-28T01:06:18;10.10;;;4.03;;
59390;SDS011;53405;57.012;40.984;2023-02-28T01:09:06;10.68;;;4.60;;
59390;SDS011;53405;57.012;40.984;2023-02-28T01:11:54;9.70;;;5.55;;
59390;SDS011;53405;57.012;40.984;2023-02-28T01:14:42;8.27;;;3.88;;
59390;SDS011;53405;57.012;40.984;2023-02-28T01:17:29;8.50;;;4.55;;
59390;SDS011;53405;57.012;40.984;2023-02-28T01:20:20;8.80;;;4.18;;
59390;SDS011;53405;57.012;40.984;2023-02-28T01:23:07;10.75;;;5.55;;
59390;SDS011;53405;57.012;40.984;2023-02-28T01:25:55;10.18;;;4.70;;
59390;SDS011;53405;57.012;40.984;2023-02-28T01:28:42;8.35;;;3.65;;
59390;SDS011;53405;57.012;40.984;2023-02-28T01:31:30;11.35;;;5.15;;
59390;SDS011;53405;57.012;40.984;2023-02-28T01:34:18;12.70;;;5.82;;
59390;SDS011;53405;57.012;40.984;2023-02-28T01:37:06;10.73;;;6.00;;
59390;SDS011;53405;57.012;40.984;2023-02-28T01:39:53;11.45;;;5.18;;
59390;SDS011;53405;57.012;40.984;2023-02-28T01:42:41;5.43;;;2.30;;
59390;SDS011;53405;57.012;40.984;2023-02-28T01:45:29;10.65;;;5.60;;
59390;SDS011;53405;57.012;40.984;2023-02-28T01:48:17;11.02;;;6.57;;
59390;SDS011;53405;57.012;40.984;2023-02-28T01:51:09;5.88;;;3.00;;
59390;SDS011;53405;57.012;40.984;2023-02-28T01:54:03;9.68;;;4.57;;
59390;SDS011;53405;57.012;40.984;2023-02-28T01:57:04;12.05;;;6.10;;
59390;SDS011;53405;57.012;40.984;2023-02-28T01:59:57;11.05;;;5.63;;
59390;SDS011;53405;57.012;40.984;2023-02-28T02:02:59;6.60;;;2.80;;
59390;SDS011;53405;57.012;40.984;2023-02-28T02:05:55;7.88;;;3.60;;
59390;SDS011;53405;57.012;40.984;2023-02-28T02:08:42;10.25;;;5.15;;
59390;SDS011;53405;57.012;40.984;2023-02-28T02:11:30;12.70;;;5.78;;
59390;SDS011;53405;57.012;40.984;2023-02-28T02:14:32;8.93;;;5.00;;
59390;SDS011;53405;57.012;40.984;2023-02-28T02:18:01;10.13;;;5.55;;
59390;SDS011;53405;57.012;40.984;2023-02-28T02:21:01;11.02;;;6.15;;
59390;SDS011;53405;57.012;40.984;2023-02-28T02:36:42;11.10;;;5.88;;
59390;SDS011;53405;57.012;40.984;2023-02-28T02:42:38;9.23;;;4.22;;
59390;SDS011;53405;57.012;40.984;2023-02-28T02:45:40;11.82;;;5.35;;
59390;SDS011;53405;57.012;40.984;2023-02-28T02:48:33;12.45;;;5.90;;
59390;SDS011;53405;57.012;40.984;2023-02-28T02:51:25;9.38;;;4.72;;
59390;SDS011;53405;57.012;40.984;2023-02-28T02:57:21;10.80;;;5.15;;
59390;SDS011;53405;57.012;40.984;2023-02-28T03:00:12;8.85;;;3.90;;
59390;SDS011;53405;57.012;40.984;2023-02-28T03:03:06;11.80;;;5.45;;
59390;SDS011;53405;57.012;40.984;2023-02-28T03:05:57;12.07;;;4.90;;
59390;SDS011;53405;57.012;40.984;2023-02-28T03:08:47;11.43;;;5.93;;
59390;SDS011;53405;57.012;40.984;2023-02-28T03:11:35;9.80;;;5.43;;
59390;SDS011;53405;57.012;40.984;2023-02-28T03:21:24;8.98;;;4.82;;
59390;SDS011;53405;57.012;40.984;2023-02-28T03:30:58;9.75;;;4.97;;
59390;SDS011;53405;57.012;40.984;2023-02-28T03:34:01;9.38;;;4.30;;
59390;SDS011;53405;57.012;40.984;2023-02-28T03:36:57;9.07;;;5.05;;
59390;SDS011;53405;57.012;40.984;2023-02-28T03:39:50;10.85;;;5.20;;
59390;SDS011;53405;57.012;40.984;2023-02-28T03:42:44;9.68;;;5.35;;
59390;SDS011;53405;57.012;40.984;2023-02-28T03:45:35;10.65;;;5.43;;
59390;SDS011;53405;57.012;40.984;2023-02-28T03:48:27;7.65;;;3.65;;
59390;SDS011;53405;57.012;40.984;2023-02-28T03:51:17;7.57;;;3.63;;
59390;SDS011;53405;57.012;40.984;2023-02-28T03:54:13;8.90;;;3.85;;
59390;SDS011;53405;57.012;40.984;2023-02-28T03:57:15;9.98;;;4.85;;
59390;SDS011;53405;57.012;40.984;2023-02-28T04:00:18;7.18;;;3.17;;
59390;SDS011;53405;57.012;40.984;2023-02-28T04:03:18;11.23;;;5.47;;
59390;SDS011;53405;57.012;40.984;2023-02-28T04:06:07;9.25;;;5.57;;
59390;SDS011;53405;57.012;40.984;2023-02-28T04:09:00;8.82;;;4.75;;
59390;SDS011;53405;57.012;40.984;2023-02-28T04:11:51;9.40;;;4.47;;
59390;SDS011;53405;57.012;40.984;2023-02-28T04:14:40;11.13;;;5.32;;
59390;SDS011;53405;57.012;40.984;2023-02-28T04:17:27;8.93;;;5.30;;
59390;SDS011;53405;57.012;40.984;2023-02-28T04:20:14;8.55;;;3.53;;
59390;SDS011;53405;57.012;40.984;2023-02-28T04:23:02;9.43;;;4.50;;
59390;SDS011;53405;57.012;40.984;2023-02-28T04:25:50;10.88;;;4.75;;
59390;SDS011;53405;57.012;40.984;2023-02-28T04:28:38;8.68;;;3.92;;
59390;SDS011;53405;57.012;40.984;2023-02-28T04:31:25;5.82;;;3.05;;
59390;SDS011;53405;57.012;40.984;2023-02-28T04:34:14;7.45;;;3.17;;
59390;SDS011;53405;57.012;40.984;2023-02-28T04:37:02;7.05;;;2.60;;
59390;SDS011;53405;57.012;40.984;2023-02-28T04:39:59;9.23;;;3.92;;
59390;SDS011;53405;57.012;40.984;2023-02-28T04:42:49;5.78;;;2.33;;
59390;SDS011;53405;57.012;40.984;2023-02-28T04:45:36;8.73;;;3.58;;
59390;SDS011;53405;57.012;40.984;2023-02-28T04:48:24;6.38;;;3.10;;
59390;SDS011;53405;57.012;40.984;2023-02-28T04:51:15;8.82;;;4.47;;
59390;SDS011;53405;57.012;40.984;2023-02-28T04:54:13;7.97;;;4.38;;
59390;SDS011;53405;57.012;40.984;2023-02-28T04:57:09;7.45;;;3.65;;
59390;SDS011;53405;57.012;40.984;2023-02-28T04:59:57;8.60;;;4.47;;
59390;SDS011;53405;57.012;40.984;2023-02-28T05:02:44;6.80;;;3.30;;
59390;SDS011;53405;57.012;40.984;2023-02-28T05:05:32;8.02;;;3.65;;
59390;SDS011;53405;57.012;40.984;2023-02-28T05:08:19;4.15;;;1.70;;
59390;SDS011;53405;57.012;40.984;2023-02-28T05:11:13;9.48;;;3.10;;
59390;SDS011;53405;57.012;40.984;2023-02-28T05:14:14;8.07;;;4.13;;
59390;SDS011;53405;57.012;40.984;2023-02-28T05:17:02;5.90;;;2.20;;
59390;SDS011;53405;57.012;40.984;2023-02-28T05:19:50;8.15;;;4.15;;
59390;SDS011;53405;57.012;40.984;2023-02-28T05:22:38;8.45;;;3.90;;
59390;SDS011;53405;57.012;40.984;2023-02-28T05:25:26;5.78;;;2.75;;
59390;SDS011;53405;57.012;40.984;2023-02-28T05:28:14;7.97;;;4.60;;
59390;SDS011;53405;57.012;40.984;2023-02-28T05:31:01;7.18;;;3.40;;
59390;SDS011;53405;57.012;40.984;2023-02-28T05:33:49;9.45;;;3.90;;
59390;SDS011;53405;57.012;40.984;2023-02-28T05:36:37;5.57;;;2.22;;
59390;SDS011;53405;57.012;40.984;2023-02-28T05:39:25;8.07;;;4.15;;
59390;SDS011;53405;57.012;40.984;2023-02-28T05:42:12;7.03;;;3.13;;
59390;SDS011;53405;57.012;40.984;2023-02-28T05:45:00;7.35;;;2.65;;
59390;SDS011;53405;57.012;40.984;2023-02-28T05:47:49;5.10;;;1.90;;
59390;SDS011;53405;57.012;40.984;2023-02-28T05:50:40;7.57;;;3.45;;
59390;SDS011;53405;57.012;40.984;2023-02-28T05:53:29;6.68;;;2.08;;
59390;SDS011;53405;57.012;40.984;2023-02-28T05:56:17;7.22;;;3.13;;
59390;SDS011;53405;57.012;40.984;2023-02-28T05:59:05;6.00;;;2.75;;
59390;SDS011;53405;57.012;40.984;2023-02-28T06:01:53;4.95;;;1.98;;
59390;SDS011;53405;57.012;40.984;2023-02-28T06:04:41;10.07;;;2.70;;
59390;SDS011;53405;57.012;40.984;2023-02-28T06:07:29;5.03;;;2.22;;
59390;SDS011;53405;57.012;40.984;2023-02-28T06:10:17;5.72;;;2.40;;
59390;SDS011;53405;57.012;40.984;2023-02-28T06:13:05;9.15;;;3.38;;
59390;SDS011;53405;57.012;40.984;2023-02-28T06:15:52;9.43;;;4.18;;
59390;SDS011;53405;57.012;40.984;2023-02-28T06:18:40;6.10;;;2.63;;
59390;SDS011;53405;57.012;40.984;2023-02-28T06:21:28;10.60;;;4.50;;
59390;SDS011;53405;57.012;40.984;2023-02-28T06:24:17;6.75;;;2.75;;
59390;SDS011;53405;57.012;40.984;2023-02-28T06:27:04;6.70;;;2.72;;
59390;SDS011;53405;57.012;40.984;2023-02-28T06:29:55;7.90;;;4.55;;
59390;SDS011;53405;57.012;40.984;2023-02-28T06:32:48;7.53;;;3.90;;
59390;SDS011;53405;57.012;40.984;2023-02-28T06:35:36;12.98;;;4.88;;
59390;SDS011;53405;57.012;40.984;2023-02-28T06:38:24;10.38;;;4.78;;
59390;SDS011;53405;57.012;40.984;2023-02-28T06:41:12;7.90;;;4.07;;
59390;SDS011;53405;57.012;40.984;2023-02-28T06:44:00;7.53;;;3.30;;
59390;SDS011;53405;57.012;40.984;2023-02-28T06:46:47;9.15;;;4.15;;
59390;SDS011;53405;57.012;40.984;2023-02-28T06:49:35;8.43;;;4.20;;
59390;SDS011;53405;57.012;40.984;2023-02-28T06:52:23;5.32;;;2.97;;
59390;SDS011;53405;57.012;40.984;2023-02-28T06:55:11;9.02;;;3.88;;
59390;SDS011;53405;57.012;40.984;2023-02-28T06:57:58;6.70;;;2.85;;
59390;SDS011;53405;57.012;40.984;2023-02-28T07:00:50;10.23;;;4.13;;
59390;SDS011;53405;57.012;40.984;2023-02-28T07:03:40;9.32;;;4.13;;
59390;SDS011;53405;57.012;40.984;2023-02-28T07:06:28;8.40;;;4.28;;
59390;SDS011;53405;57.012;40.984;2023-02-28T07:09:15;6.72;;;3.08;;
59390;SDS011;53405;57.012;40.984;2023-02-28T07:12:03;5.68;;;2.85;;
59390;SDS011;53405;57.012;40.984;2023-02-28T07:14:51;8.30;;;4.18;;
59390;SDS011;53405;57.012;40.984;2023-02-28T07:17:38;6.75;;;3.05;;
59390;SDS011;53405;57.012;40.984;2023-02-28T07:20:26;7.95;;;3.33;;
59390;SDS011;53405;57.012;40.984;2023-02-28T07:23:13;8.48;;;3.58;;
59390;SDS011;53405;57.012;40.984;2023-02-28T07:26:00;9.25;;;3.78;;
59390;SDS011;53405;57.012;40.984;2023-02-28T07:28:48;8.90;;;4.47;;
59390;SDS011;53405;57.012;40.984;2023-02-28T07:31:36;8.68;;;4.25;;
59390;SDS011;53405;57.012;40.984;2023-02-28T07:34:23;9.15;;;3.75;;
59390;SDS011;53405;57.012;40.984;2023-02-28T07:37:12;9.85;;;4.07;;
59390;SDS011;53405;57.012;40.984;2023-02-28T07:40:00;9.55;;;3.95;;
59390;SDS011;53405;57.012;40.984;2023-02-28T07:42:49;6.83;;;3.30;;
59390;SDS011;53405;57.012;40.984;2023-02-28T07:45:36;5.38;;;2.45;;
59390;SDS011;53405;57.012;40.984;2023-02-28T07:48:24;8.40;;;4.68;;
59390;SDS011;53405;57.012;40.984;2023-02-28T07:51:12;9.40;;;4.20;;
59390;SDS011;53405;57.012;40.984;2023-02-28T07:53:59;13.48;;;5.28;;
59390;SDS011;53405;57.012;40.984;2023-02-28T07:56:47;5.68;;;2.50;;
59390;SDS011;53405;57.012;40.984;2023-02-28T07:59:34;9.25;;;3.30;;
59390;SDS011;53405;57.012;40.984;2023-02-28T08:02:22;8.85;;;4.78;;
59390;SDS011;53405;57.012;40.984;2023-02-28T08:05:09;9.00;;;4.88;;
59390;SDS011;53405;57.012;40.984;2023-02-28T08:07:57;6.45;;;2.90;;
59390;SDS011;53405;57.012;40.984;2023-02-28T08:10:44;9.48;;;4.63;;
59390;SDS011;53405;57.012;40.984;2023-02-28T08:13:32;8.23;;;4.28;;
59390;SDS011;53405;57.012;40.984;2023-02-28T08:16:20;8.23;;;3.83;;
59390;SDS011;53405;57.012;40.984;2023-02-28T08:19:09;8.25;;;4.20;;
59390;SDS011;53405;57.012;40.984;2023-02-28T08:21:57;7.32;;;3.13;;
59390;SDS011;53405;57.012;40.984;2023-02-28T08:24:44;9.43;;;4.55;;
59390;SDS011;53405;57.012;40.984;2023-02-28T08:27:32;8.73;;;3.42;;
59390;SDS011;53405;57.012;40.984;2023-02-28T08:30:20;9.05;;;4.40;;
59390;SDS011;53405;57.012;40.984;2023-02-28T08:33:07;7.32;;;3.70;;
59390;SDS011;53405;57.012;40.984;2023-02-28T08:35:55;6.28;;;3.00;;
59390;SDS011;53405;57.012;40.984;2023-02-28T08:38:43;8.73;;;4.43;;
59390;SDS011;53405;57.012;40.984;2023-02-28T08:41:31;7.53;;;3.75;;
59390;SDS011;53405;57.012;40.984;2023-02-28T08:44:19;8.45;;;3.97;;
59390;SDS011;53405;57.012;40.984;2023-02-28T08:47:07;7.97;;;4.15;;
59390;SDS011;53405;57.012;40.984;2023-02-28T08:49:54;8.35;;;4.00;;
59390;SDS011;53405;57.012;40.984;2023-02-28T08:52:42;7.03;;;2.78;;
59390;SDS011;53405;57.012;40.984;2023-02-28T08:55:30;8.20;;;3.67;;
59390;SDS011;53405;57.012;40.984;2023-02-28T08:58:18;10.38;;;4.75;;
59390;SDS011;53405;57.012;40.984;2023-02-28T09:01:10;7.03;;;3.10;;
59390;SDS011;53405;57.012;40.984;2023-02-28T09:04:03;5.07;;;2.55;;
59390;SDS011;53405;57.012;40.984;2023-02-28T09:06:50;8.10;;;4.30;;
59390;SDS011;53405;57.012;40.984;2023-02-28T09:09:38;7.70;;;4.15;;
59390;SDS011;53405;57.012;40.984;2023-02-28T09:12:40;7.57;;;3.72;;
59390;SDS011;53405;57.012;40.984;2023-02-28T09:15:28;9.40;;;4.18;;
59390;SDS011;53405;57.012;40.984;2023-02-28T09:18:16;8.55;;;3.50;;
59390;SDS011;53405;57.012;40.984;2023-02-28T09:21:04;6.65;;;3.15;;
59390;SDS011;53405;57.012;40.984;2023-02-28T09:23:52;6.87;;;3.10;;
59390;SDS011;53405;57.012;40.984;2023-02-28T09:26:41;7.82;;;3.72;;
59390;SDS011;53405;57.012;40.984;2023-02-28T09:29:41;8.35;;;4.18;;
59390;SDS011;53405;57.012;40.984;2023-02-28T09:32:29;7.13;;;4.10;;
59390;SDS011;53405;57.012;40.984;2023-02-28T09:35:20;7.78;;;2.78;;
59390;SDS011;53405;57.012;40.984;2023-02-28T09:38:09;6.00;;;2.55;;
59390;SDS011;53405;57.012;40.984;2023-02-28T09:41:01;6.88;;;2.72;;
59390;SDS011;53405;57.012;40.984;2023-02-28T09:43:52;5.93;;;2.05;;
59390;SDS011;53405;57.012;40.984;2023-02-28T09:46:46;7.03;;;3.50;;
59390;SDS011;53405;57.012;40.984;2023-02-28T09:49:43;4.25;;;2.10;;
59390;SDS011;53405;57.012;40.984;2023-02-28T09:52:34;6.07;;;2.88;;
59390;SDS011;53405;57.012;40.984;2023-02-28T09:58:18;8.10;;;3.80;;
59390;SDS011;53405;57.012;40.984;2023-02-28T10:04:10;8.73;;;2.92;;
59390;SDS011;53405;57.012;40.984;2023-02-28T10:13:35;5.15;;;2.40;;
59390;SDS011;53405;57.012;40.984;2023-02-28T10:16:40;7.32;;;3.60;;
59390;SDS011;53405;57.012;40.984;2023-02-28T10:23:17;7.07;;;3.10;;
59390;SDS011;53405;57.012;40.984;2023-02-28T10:26:10;10.60;;;2.65;;
59390;SDS011;53405;57.012;40.984;2023-02-28T10:29:00;10.57;;;3.08;;
59390;SDS011;53405;57.012;40.984;2023-02-28T10:31:49;7.82;;;3.22;;
59390;SDS011;53405;57.012;40.984;2023-02-28T10:34:37;5.70;;;2.63;;
59390;SDS011;53405;57.012;40.984;2023-02-28T10:37:25;6.75;;;3.15;;
59390;SDS011;53405;57.012;40.984;2023-02-28T10:49:05;7.28;;;3.10;;
59390;SDS011;53405;57.012;40.984;2023-02-28T10:51:59;6.70;;;3.30;;
59390;SDS011;53405;57.012;40.984;2023-02-28T10:54:48;6.00;;;3.00;;
59390;SDS011;53405;57.012;40.984;2023-02-28T10:57:35;7.65;;;2.67;;
59390;SDS011;53405;57.012;40.984;2023-02-28T11:00:24;6.57;;;2.90;;
59390;SDS011;53405;57.012;40.984;2023-02-28T11:06:33;9.45;;;4.22;;
59390;SDS011;53405;57.012;40.984;2023-02-28T11:12:29;9.63;;;4.07;;
59390;SDS011;53405;57.012;40.984;2023-02-28T11:18:22;9.60;;;3.10;;
59390;SDS011;53405;57.012;40.984;2023-02-28T11:21:29;8.27;;;3.75;;
59390;SDS011;53405;57.012;40.984;2023-02-28T11:30:35;6.82;;;2.78;;
59390;SDS011;53405;57.012;40.984;2023-02-28T11:33:31;9.18;;;4.30;;
59390;SDS011;53405;57.012;40.984;2023-02-28T11:36:30;8.23;;;4.47;;
59390;SDS011;53405;57.012;40.984;2023-02-28T11:39:19;7.32;;;3.28;;
59390;SDS011;53405;57.012;40.984;2023-02-28T11:57:56;8.43;;;3.65;;
59390;SDS011;53405;57.012;40.984;2023-02-28T12:01:05;9.70;;;4.82;;
59390;SDS011;53405;57.012;40.984;2023-02-28T12:04:15;11.07;;;4.40;;
59390;SDS011;53405;57.012;40.984;2023-02-28T12:07:37;8.63;;;3.15;;
59390;SDS011;53405;57.012;40.984;2023-02-28T12:21:01;9.75;;;3.60;;
59390;SDS011;53405;57.012;40.984;2023-02-28T12:27:02;10.05;;;4.20;;
59390;SDS011;53405;57.012;40.984;2023-02-28T12:30:21;8.73;;;3.30;;
59390;SDS011;53405;57.012;40.984;2023-02-28T12:33:16;11.07;;;3.90;;
59390;SDS011;53405;57.012;40.984;2023-02-28T12:36:09;12.55;;;5.15;;
59390;SDS011;53405;57.012;40.984;2023-02-28T12:39:10;9.55;;;4.38;;
59390;SDS011;53405;57.012;40.984;2023-02-28T12:42:05;7.38;;;3.33;;
59390;SDS011;53405;57.012;40.984;2023-02-28T12:45:01;7.70;;;3.47;;
59390;SDS011;53405;57.012;40.984;2023-02-28T12:48:02;5.47;;;2.55;;
59390;SDS011;53405;57.012;40.984;2023-02-28T12:50:53;9.00;;;3.45;;
59390;SDS011;53405;57.012;40.984;2023-02-28T12:56:48;7.60;;;3.13;;
59390;SDS011;53405;57.012;40.984;2023-02-28T13:09:13;7.88;;;3.40;;
59390;SDS011;53405;57.012;40.984;2023-02-28T13:12:04;6.78;;;2.03;;
59390;SDS011;53405;57.012;40.984;2023-02-28T13:15:08;9.02;;;4.18;;
59390;SDS011;53405;57.012;40.984;2023-02-28T13:18:20;8.70;;;3.63;;
59390;SDS011;53405;57.012;40.984;2023-02-28T13:24:13;8.20;;;3.30;;
59390;SDS011;53405;57.012;40.984;2023-02-28T13:27:36;5.93;;;2.80;;
59390;SDS011;53405;57.012;40.984;2023-02-28T13:36:35;6.75;;;2.85;;
59390;SDS011;53405;57.012;40.984;2023-02-28T13:45:27;7.72;;;3.00;;
59390;SDS011;53405;57.012;40.984;2023-02-28T13:48:26;8.40;;;3.25;;
59390;SDS011;53405;57.012;40.984;2023-02-28T13:54:49;6.20;;;2.70;;
59390;SDS011;53405;57.012;40.984;2023-02-28T14:06:52;6.80;;;3.00;;
59390;SDS011;53405;57.012;40.984;2023-02-28T14:09:44;10.50;;;3.22;;
59390;SDS011;53405;57.012;40.984;2023-02-28T14:15:49;7.35;;;3.03;;
59390;SDS011;53405;57.012;40.984;2023-02-28T14:19:00;6.57;;;2.60;;
59390;SDS011;53405;57.012;40.984;2023-02-28T14:34:29;6.60;;;3.05;;
59390;SDS011;53405;57.012;40.984;2023-02-28T14:37:33;5.95;;;2.92;;
59390;SDS011;53405;57.012;40.984;2023-02-28T14:40:32;6.80;;;3.50;;
59390;SDS011;53405;57.012;40.984;2023-02-28T14:43:23;8.05;;;3.90;;
59390;SDS011;53405;57.012;40.984;2023-02-28T14:46:13;6.35;;;3.15;;
59390;SDS011;53405;57.012;40.984;2023-02-28T14:49:01;5.95;;;2.50;;
59390;SDS011;53405;57.012;40.984;2023-02-28T14:51:50;9.20;;;3.58;;
59390;SDS011;53405;57.012;40.984;2023-02-28T14:55:12;7.30;;;3.10;;
59390;SDS011;53405;57.012;40.984;2023-02-28T14:58:05;6.53;;;2.60;;
59390;SDS011;53405;57.012;40.984;2023-02-28T15:00:55;7.53;;;3.25;;
59390;SDS011;53405;57.012;40.984;2023-02-28T15:03:47;8.93;;;3.42;;
59390;SDS011;53405;57.012;40.984;2023-02-28T15:06:35;7.35;;;3.20;;
59390;SDS011;53405;57.012;40.984;2023-02-28T15:09:22;6.15;;;2.75;;
59390;SDS011;53405;57.012;40.984;2023-02-28T15:12:13;8.05;;;3.88;;
59390;SDS011;53405;57.012;40.984;2023-02-28T15:15:02;7.85;;;3.28;;
59390;SDS011;53405;57.012;40.984;2023-02-28T15:17:51;6.78;;;3.17;;
59390;SDS011;53405;57.012;40.984;2023-02-28T15:20:44;6.18;;;3.10;;
59390;SDS011;53405;57.012;40.984;2023-02-28T15:23:37;8.68;;;2.83;;
59390;SDS011;53405;57.012;40.984;2023-02-28T15:26:32;7.85;;;2.70;;
59390;SDS011;53405;57.012;40.984;2023-02-28T15:29:24;6.50;;;2.60;;
59390;SDS011;53405;57.012;40.984;2023-02-28T15:32:24;7.20;;;3.05;;
59390;SDS011;53405;57.012;40.984;2023-02-28T15:38:25;6.20;;;2.35;;
59390;SDS011;53405;57.012;40.984;2023-02-28T15:41:27;6.85;;;2.80;;
59390;SDS011;53405;57.012;40.984;2023-02-28T15:47:23;7.15;;;3.03;;
59390;SDS011;53405;57.012;40.984;2023-02-28T15:50:16;5.32;;;2.60;;
59390;SDS011;53405;57.012;40.984;2023-02-28T15:53:04;7.28;;;2.95;;
59390;SDS011;53405;57.012;40.984;2023-02-28T15:56:04;8.48;;;3.60;;
59390;SDS011;53405;57.012;40.984;2023-02-28T15:59:14;9.20;;;2.87;;
59390;SDS011;53405;57.012;40.984;2023-02-28T16:07:55;9.55;;;3.72;;
59390;SDS011;53405;57.012;40.984;2023-02-28T16:10:44;7.78;;;3.35;;
59390;SDS011;53405;57.012;40.984;2023-02-28T16:13:32;6.40;;;2.85;;
59390;SDS011;53405;57.012;40.984;2023-02-28T16:16:21;9.52;;;3.08;;
59390;SDS011;53405;57.012;40.984;2023-02-28T16:19:11;8.43;;;2.80;;
59390;SDS011;53405;57.012;40.984;2023-02-28T16:22:00;8.82;;;3.58;;
59390;SDS011;53405;57.012;40.984;2023-02-28T16:24:48;8.27;;;3.47;;
59390;SDS011;53405;57.012;40.984;2023-02-28T16:27:36;6.55;;;2.80;;
59390;SDS011;53405;57.012;40.984;2023-02-28T16:30:25;7.10;;;2.53;;
59390;SDS011;53405;57.012;40.984;2023-02-28T16:33:14;5.63;;;2.63;;
59390;SDS011;53405;57.012;40.984;2023-02-28T16:36:02;6.10;;;2.90;;
59390;SDS011;53405;57.012;40.984;2023-02-28T16:38:50;6.22;;;2.80;;
59390;SDS011;53405;57.012;40.984;2023-02-28T16:41:37;9.63;;;3.53;;
59390;SDS011;53405;57.012;40.984;2023-02-28T16:44:35;9.52;;;4.22;;
59390;SDS011;53405;57.012;40.984;2023-02-28T16:47:23;7.90;;;3.72;;
59390;SDS011;53405;57.012;40.984;2023-02-28T16:50:17;7.10;;;2.88;;
59390;SDS011;53405;57.012;40.984;2023-02-28T16:53:07;7.65;;;2.42;;
59390;SDS011;53405;57.012;40.984;2023-02-28T16:55:55;6.38;;;2.28;;
59390;SDS011;53405;57.012;40.984;2023-02-28T16:58:42;4.93;;;1.58;;
59390;SDS011;53405;57.012;40.984;2023-02-28T17:01:30;4.13;;;1.77;;
59390;SDS011;53405;57.012;40.984;2023-02-28T17:04:19;5.03;;;1.40;;
59390;SDS011;53405;57.012;40.984;2023-02-28T17:07:10;4.47;;;1.65;;
59390;SDS011;53405;57.012;40.984;2023-02-28T17:09:59;3.55;;;1.40;;
59390;SDS011;53405;57.012;40.984;2023-02-28T17:12:55;6.03;;;1.90;;
59390;SDS011;53405;57.012;40.984;2023-02-28T17:15:52;4.70;;;1.70;;
59390;SDS011;53405;57.012;40.984;2023-02-28T17:18:39;3.25;;;1.50;;
59390;SDS011;53405;57.012;40.984;2023-02-28T17:21:27;5.38;;;1.55;;
59390;SDS011;53405;57.012;40.984;2023-02-28T17:24:16;8.95;;;2.90;;
59390;SDS011;53405;57.012;40.984;2023-02-28T17:27:16;6.07;;;2.10;;
59390;SDS011;53405;57.012;40.984;2023-02-28T17:30:09;4.78;;;1.95;;
59390;SDS011;53405;57.012;40.984;2023-02-28T17:33:02;4.18;;;1.52;;
59390;SDS011;53405;57.012;40.984;2023-02-28T17:35:50;8.40;;;1.70;;
59390;SDS011;53405;57.012;40.984;2023-02-28T17:38:37;4.20;;;1.50;;
59390;SDS011;53405;57.012;40.984;2023-02-28T17:41:25;8.55;;;1.70;;
59390;SDS011;53405;57.012;40.984;2023-02-28T17:44:17;4.68;;;1.67;;
59390;SDS011;53405;57.012;40.984;2023-02-28T17:47:05;4.57;;;1.33;;
59390;SDS011;53405;57.012;40.984;2023-02-28T17:49:53;5.82;;;1.33;;
59390;SDS011;53405;57.012;40.984;2023-02-28T17:52:40;4.55;;;1.70;;
59390;SDS011;53405;57.012;40.984;2023-02-28T17:55:29;9.10;;;2.15;;
59390;SDS011;53405;57.012;40.984;2023-02-28T17:58:16;6.32;;;1.67;;
59390;SDS011;53405;57.012;40.984;2023-02-28T18:01:05;6.33;;;1.30;;
59390;SDS011;53405;57.012;40.984;2023-02-28T18:03:53;5.20;;;1.70;;
59390;SDS011;53405;57.012;40.984;2023-02-28T18:06:45;6.10;;;1.95;;
59390;SDS011;53405;57.012;40.984;2023-02-28T18:09:37;6.05;;;1.70;;
59390;SDS011;53405;57.012;40.984;2023-02-28T18:12:25;3.17;;;1.27;;
59390;SDS011;53405;57.012;40.984;2023-02-28T18:15:14;3.95;;;1.10;;
59390;SDS011;53405;57.012;40.984;2023-02-28T18:20:50;3.50;;;1.30;;
59390;SDS011;53405;57.012;40.984;2023-02-28T18:23:39;7.93;;;1.77;;
59390;SDS011;53405;57.012;40.984;2023-02-28T18:26:33;4.70;;;1.65;;
59390;SDS011;53405;57.012;40.984;2023-02-28T18:29:24;4.85;;;1.58;;
59390;SDS011;53405;57.012;40.984;2023-02-28T18:32:13;4.43;;;1.40;;
59390;SDS011;53405;57.012;40.984;2023-02-28T18:35:01;5.93;;;1.55;;
59390;SDS011;53405;57.012;40.984;2023-02-28T18:37:49;4.88;;;1.52;;
59390;SDS011;53405;57.012;40.984;2023-02-28T18:40:37;5.07;;;1.50;;
59390;SDS011;53405;57.012;40.984;2023-02-28T18:43:26;5.60;;;1.33;;
59390;SDS011;53405;57.012;40.984;2023-02-28T18:46:16;7.72;;;2.38;;
59390;SDS011;53405;57.012;40.984;2023-02-28T18:49:05;7.10;;;1.92;;
59390;SDS011;53405;57.012;40.984;2023-02-28T18:51:52;4.82;;;1.50;;
59390;SDS011;53405;57.012;40.984;2023-02-28T18:54:40;5.63;;;1.33;;
59390;SDS011;53405;57.012;40.984;2023-02-28T18:57:28;8.63;;;1.90;;
59390;SDS011;53405;57.012;40.984;2023-02-28T19:00:15;5.20;;;1.63;;
59390;SDS011;53405;57.012;40.984;2023-02-28T19:03:08;5.75;;;2.00;;
59390;SDS011;53405;57.012;40.984;2023-02-28T19:05:59;8.05;;;2.15;;
59390;SDS011;53405;57.012;40.984;2023-02-28T19:08:47;4.60;;;1.63;;
59390;SDS011;53405;57.012;40.984;2023-02-28T19:11:44;8.35;;;1.80;;
59390;SDS011;53405;57.012;40.984;2023-02-28T19:14:32;4.30;;;1.45;;
59390;SDS011;53405;57.012;40.984;2023-02-28T19:17:19;5.72;;;1.55;;
59390;SDS011;53405;57.012;40.984;2023-02-28T19:20:07;6.05;;;1.77;;
59390;SDS011;53405;57.012;40.984;2023-02-28T19:22:55;9.23;;;1.80;;
59390;SDS011;53405;57.012;40.984;2023-02-28T19:25:44;4.65;;;1.65;;
59390;SDS011;53405;57.012;40.984;2023-02-28T19:28:31;4.78;;;1.45;;
59390;SDS011;53405;57.012;40.984;2023-02-28T19:31:20;4.70;;;1.45;;
59390;SDS011;53405;57.012;40.984;2023-02-28T19:34:10;4.50;;;1.38;;
59390;SDS011;53405;57.012;40.984;2023-02-28T19:36:57;5.53;;;1.40;;
59390;SDS011;53405;57.012;40.984;2023-02-28T19:39:45;5.45;;;1.33;;
59390;SDS011;53405;57.012;40.984;2023-02-28T19:42:33;4.00;;;1.30;;
59390;SDS011;53405;57.012;40.984;2023-02-28T19:45:21;4.57;;;1.70;;
59390;SDS011;53405;57.012;40.984;2023-02-28T19:48:09;7.13;;;1.70;;